Time;durP1;ratioP1;P1;durP2;ratioP2;P2;SDS_P1;SDS_P2;PMS_P1;PMS_P2;Temp;Humidity;BMP_temperature;BMP_pressure;BME280_temperature;BME280_humidity;BME280_pressure;Samples;Min_cycle;Max_cycle;Signal;HPM_P1;HPM_P2
2021/03/13 03:10:45;;;;;;;39.00;20.23;;;;;;;3.18;73.64;98992.44;5816948;23;20035;-82
2021/03/13 07:42:40;;;;;;;47.58;26.83;;;;;;;7.69;62.60;99079.38;4989194;23;20047;-78
2021/03/13 07:45:07;;;;;;;46.13;25.30;;;;;;;7.82;62.81;99086.91;4912370;29;20036;-78
2021/03/13 07:47:35;;;;;;;39.60;25.17;;;;;;;7.96;61.98;99073.94;4902604;29;20028;-80
2021/03/13 07:50:46;;;;;;;36.88;22.38;;;;;;;8.19;62.02;99077.25;4919261;29;20036;-82
2021/03/13 07:54:14;;;;;;;39.50;24.10;;;;;;;8.43;60.81;99074.16;4915061;29;20043;-82
2021/03/13 08:09:49;;;;;;;36.97;22.15;;;;;;;9.49;58.92;99041.78;4857716;29;20107;-83
2021/03/13 08:13:01;;;;;;;32.50;21.25;;;;;;;9.66;58.30;99052.16;4905840;29;20058;-89
2021/03/13 08:16:26;;;;;;;35.45;20.50;;;;;;;9.81;57.18;99056.69;4909586;29;20076;-88
2021/03/13 08:19:25;;;;;;;34.65;20.15;;;;;;;9.88;57.25;99053.75;4886163;29;20047;-90
2021/03/13 08:22:25;;;;;;;25.08;17.80;;;;;;;9.88;56.39;99049.19;4894971;29;20036;-90
2021/03/13 08:28:32;;;;;;;33.60;20.50;;;;;;;9.93;56.97;99059.06;4889076;29;20031;-91
2021/03/13 08:34:23;;;;;;;28.92;19.27;;;;;;;10.03;56.74;99059.06;4900989;29;20082;-88
2021/03/13 08:36:50;;;;;;;34.28;20.02;;;;;;;10.02;56.42;99062.78;4878701;29;20029;-87
2021/03/13 08:39:34;;;;;;;35.53;20.05;;;;;;;10.02;57.25;99062.78;4882508;29;20041;-89
2021/03/13 08:42:00;;;;;;;36.70;21.98;;;;;;;10.02;56.70;99067.31;4891785;29;20048;-84
2021/03/13 08:44:25;;;;;;;35.85;21.17;;;;;;;9.98;56.98;99063.59;4907915;29;20071;-82
2021/03/13 09:01:18;;;;;;;36.30;21.90;;;;;;;9.33;58.56;99034.88;5133701;23;20047;-87
2021/03/13 09:04:24;;;;;;;35.33;22.05;;;;;;;9.33;58.79;99026.88;4901024;29;20060;-83
2021/03/13 09:07:20;;;;;;;31.67;20.95;;;;;;;9.35;60.14;99036.19;4886180;29;20063;-82
2021/03/13 09:10:42;;;;;;;36.55;20.85;;;;;;;9.36;59.18;99027.13;4915855;29;20028;-83
2021/03/13 09:23:30;;;;;;;31.45;19.08;;;;;;;9.64;59.15;99002.78;4971489;23;20056;-87
2021/03/13 09:26:21;;;;;;;28.10;17.67;;;;;;;9.72;57.63;98999.56;4910234;29;20044;-90
2021/03/13 09:28:56;;;;;;;31.70;17.30;;;;;;;9.86;57.70;99002.44;4928853;29;20491;-90
2021/03/13 09:31:21;;;;;;;25.75;16.83;;;;;;;9.92;57.70;98991.50;4917077;29;20123;-91
2021/03/13 09:33:47;;;;;;;29.63;18.13;;;;;;;10.08;57.74;98992.22;4920639;29;20496;-94
2021/03/13 09:36:13;;;;;;;29.52;18.13;;;;;;;10.20;57.22;98989.22;4921302;29;20130;-94
2021/03/13 09:38:39;;;;;;;29.90;20.10;;;;;;;10.34;57.50;98994.78;4907954;29;20035;-93
2021/03/13 09:41:14;;;;;;;29.90;18.50;;;;;;;10.48;57.05;98997.66;4898688;29;20032;-93
2021/03/13 09:43:40;;;;;;;31.27;19.00;;;;;;;10.54;56.48;99001.13;4911191;29;20091;-93
2021/03/13 09:46:19;;;;;;;28.30;18.08;;;;;;;10.63;56.34;99007.50;4901815;29;20039;-92
2021/03/13 09:48:45;;;;;;;34.25;20.85;;;;;;;10.72;56.32;99002.34;4899700;29;20036;-91
2021/03/13 09:51:11;;;;;;;35.70;21.42;;;;;;;10.81;56.30;99007.91;4917103;29;20034;-94
2021/03/13 09:53:38;;;;;;;33.97;20.10;;;;;;;10.88;56.78;99003.03;4906690;29;20038;-92
2021/03/13 09:56:06;;;;;;;30.23;19.85;;;;;;;10.95;56.56;98990.16;4897704;29;20028;-91
2021/03/13 09:58:31;;;;;;;27.73;18.95;;;;;;;11.03;55.77;98994.91;4897593;29;20107;-91
2021/03/13 10:00:57;;;;;;;24.98;18.30;;;;;;;11.09;56.08;98992.97;4897580;29;20257;-91
2021/03/13 10:03:23;;;;;;;25.83;16.25;;;;;;;11.11;54.95;98990.81;4898555;29;20036;-93
2021/03/13 10:05:57;;;;;;;27.27;16.88;;;;;;;11.16;55.18;98995.34;4897718;29;20043;-92
2021/03/13 10:08:33;;;;;;;26.10;16.33;;;;;;;11.19;54.38;98997.44;4898081;29;20186;-94
2021/03/13 10:11:01;;;;;;;24.40;16.80;;;;;;;11.24;55.02;98992.03;4897778;29;20028;-91
2021/03/13 10:13:29;;;;;;;24.15;15.00;;;;;;;11.27;54.75;98983.44;4899557;29;20099;-95
2021/03/13 10:15:55;;;;;;;24.95;16.17;;;;;;;11.33;54.10;98990.34;4898510;29;20400;-94
2021/03/13 10:18:25;;;;;;;22.55;15.50;;;;;;;11.38;54.53;98995.66;4898495;29;20492;-95
2021/03/13 10:20:52;;;;;;;23.50;16.13;;;;;;;11.44;54.83;98992.94;4899783;29;20020;-95
2021/03/13 10:23:28;;;;;;;23.02;16.33;;;;;;;11.48;55.53;98983.25;4898018;29;20060;-94
2021/03/13 10:26:02;;;;;;;20.73;15.02;;;;;;;11.54;54.03;98980.22;4898196;29;20560;-93
2021/03/13 10:28:51;;;;;;;24.30;15.07;;;;;;;11.60;53.52;98982.88;4898514;29;20036;-94
2021/03/13 10:31:27;;;;;;;26.35;16.55;;;;;;;11.68;53.54;98987.59;4898549;29;20480;-92
2021/03/13 10:33:54;;;;;;;17.58;12.63;;;;;;;11.75;52.91;98985.38;4897784;29;20435;-91
2021/03/13 10:36:21;;;;;;;17.65;12.77;;;;;;;11.79;50.97;98977.56;4898192;29;20028;-92
2021/03/13 10:38:52;;;;;;;20.58;13.05;;;;;;;11.84;50.53;98970.28;4897651;29;20029;-92
2021/03/13 10:41:23;;;;;;;17.95;12.48;;;;;;;11.86;50.61;98961.94;4897761;29;20040;-92
2021/03/13 10:43:51;;;;;;;17.13;11.38;;;;;;;11.94;51.63;98955.97;4897089;29;20040;-92
2021/03/13 10:46:21;;;;;;;20.63;14.05;;;;;;;12.06;50.36;98965.47;4898211;29;20032;-91
2021/03/13 10:48:46;;;;;;;17.98;12.40;;;;;;;12.14;50.28;98970.22;4897634;29;20064;-91
2021/03/13 10:51:22;;;;;;;18.60;12.23;;;;;;;12.23;50.50;98955.09;4898152;29;20086;-91
2021/03/13 10:53:48;;;;;;;22.65;14.52;;;;;;;12.27;50.81;98948.06;4901504;29;20046;-96
2021/03/13 10:56:14;;;;;;;19.38;13.05;;;;;;;12.36;51.15;98952.78;4902721;29;20024;-89
2021/03/13 10:58:58;;;;;;;20.58;13.27;;;;;;;12.49;51.35;98954.72;4900903;29;20035;-92
2021/03/13 11:01:24;;;;;;;19.35;13.00;;;;;;;12.59;50.46;98949.19;4900202;29;20033;-92
2021/03/13 11:03:51;;;;;;;22.15;14.18;;;;;;;12.65;50.83;98948.03;4900689;29;20032;-92
2021/03/13 11:06:33;;;;;;;21.98;15.25;;;;;;;12.74;49.84;98953.56;4900089;29;20032;-91
2021/03/13 11:09:02;;;;;;;26.13;15.73;;;;;;;12.79;49.11;98940.06;4899690;29;20036;-91
2021/03/13 11:11:28;;;;;;;22.70;13.82;;;;;;;12.86;50.17;98936.97;4899949;29;20024;-91
2021/03/13 11:13:54;;;;;;;20.50;15.07;;;;;;;12.92;49.51;98949.22;4901722;29;20078;-91
2021/03/13 11:16:22;;;;;;;23.70;15.55;;;;;;;12.96;48.82;98944.06;4905157;29;20028;-92
2021/03/13 11:18:52;;;;;;;20.30;15.23;;;;;;;12.97;48.85;98943.78;4910625;29;20064;-92
2021/03/13 11:21:18;;;;;;;19.02;12.77;;;;;;;12.96;48.50;98939.50;4910719;29;20055;-93
2021/03/13 11:23:44;;;;;;;20.23;15.05;;;;;;;12.98;48.76;98931.16;4900444;29;20059;-90
2021/03/13 11:26:11;;;;;;;24.17;15.02;;;;;;;13.03;48.40;98930.28;4899954;29;20032;-90
2021/03/13 11:28:38;;;;;;;23.38;15.52;;;;;;;13.00;47.78;98926.28;4900195;29;20188;-90
2021/03/13 11:31:04;;;;;;;28.10;15.93;;;;;;;13.03;48.61;98927.59;4899165;29;20063;-88
2021/03/13 11:33:30;;;;;;;24.27;15.23;;;;;;;13.04;48.86;98908.50;4899572;29;20389;-89
2021/03/13 11:35:55;;;;;;;24.67;15.50;;;;;;;13.09;48.81;98912.97;4899560;29;20035;-89
2021/03/13 11:38:21;;;;;;;23.83;16.45;;;;;;;13.17;48.66;98917.69;4899376;29;20416;-90
2021/03/13 11:40:46;;;;;;;22.02;14.85;;;;;;;13.26;49.08;98913.19;4899653;29;20462;-91
2021/03/13 11:43:11;;;;;;;22.67;14.63;;;;;;;13.34;49.52;98895.63;4899514;29;20475;-90
2021/03/13 11:45:37;;;;;;;22.35;14.23;;;;;;;13.41;49.71;98900.59;4899633;29;20032;-89
2021/03/13 11:48:03;;;;;;;25.63;16.55;;;;;;;13.45;48.84;98898.91;4899464;29;20040;-90
2021/03/13 11:50:30;;;;;;;24.50;15.52;;;;;;;13.45;48.32;98904.28;4899738;29;20040;-90
2021/03/13 11:52:57;;;;;;;26.30;17.67;;;;;;;13.42;48.73;98894.94;4899253;29;20036;-90
2021/03/13 11:55:24;;;;;;;22.45;16.10;;;;;;;13.43;48.47;98895.75;4899622;29;20036;-91
2021/03/13 11:57:49;;;;;;;25.17;16.40;;;;;;;13.42;49.50;98894.16;4899892;29;20136;-90
2021/03/13 12:00:16;;;;;;;19.50;14.52;;;;;;;13.46;48.98;98889.75;4898710;29;20058;-92
2021/03/13 12:02:41;;;;;;;21.85;14.45;;;;;;;13.45;48.64;98893.53;4899099;29;20111;-91
2021/03/13 12:05:07;;;;;;;22.67;13.93;;;;;;;13.45;49.41;98890.84;4898846;29;20767;-91
2021/03/13 12:07:34;;;;;;;20.80;14.00;;;;;;;13.48;48.58;98897.53;4898678;29;20515;-91
2021/03/13 12:10:00;;;;;;;23.05;13.52;;;;;;;13.48;48.38;98892.16;4898611;29;20050;-92
2021/03/13 12:12:25;;;;;;;16.77;11.82;;;;;;;13.47;48.03;98898.63;4899621;29;20028;-90
2021/03/13 12:14:51;;;;;;;16.50;11.63;;;;;;;13.42;48.42;98888.78;4900226;29;20397;-92
2021/03/13 12:17:16;;;;;;;17.17;11.85;;;;;;;13.42;48.88;98878.81;4899439;29;20562;-91
2021/03/13 12:19:42;;;;;;;14.63;10.77;;;;;;;13.43;48.89;98864.28;4899152;29;20127;-92
2021/03/13 12:22:08;;;;;;;15.05;10.75;;;;;;;13.52;49.28;98872.44;4898815;29;20100;-93
2021/03/13 12:24:35;;;;;;;15.40;11.98;;;;;;;13.51;48.53;98878.94;4899890;29;20046;-93
2021/03/13 12:27:00;;;;;;;15.75;11.40;;;;;;;13.47;48.85;98887.88;4899917;29;20036;-92
2021/03/13 12:29:26;;;;;;;17.58;11.73;;;;;;;13.47;48.50;98888.66;4899814;29;20465;-93
2021/03/13 12:31:52;;;;;;;17.45;12.40;;;;;;;13.45;48.71;98877.41;4899337;29;20039;-92
2021/03/13 12:34:18;;;;;;;19.33;12.52;;;;;;;13.47;48.91;98872.56;4899668;29;20392;-93
2021/03/13 12:36:43;;;;;;;20.05;13.27;;;;;;;13.49;50.00;98866.88;4899514;29;20028;-92
2021/03/13 12:39:09;;;;;;;14.77;11.32;;;;;;;13.54;49.06;98862.19;4900090;29;20051;-91
2021/03/13 12:41:35;;;;;;;18.27;10.95;;;;;;;13.61;49.67;98869.88;4899719;29;20107;-92
2021/03/13 12:44:00;;;;;;;19.95;12.30;;;;;;;13.67;49.23;98857.91;4898737;29;20033;-92
2021/03/13 12:46:26;;;;;;;16.33;11.90;;;;;;;13.70;48.45;98846.56;4899536;29;20036;-91
2021/03/13 12:48:52;;;;;;;19.63;13.45;;;;;;;13.76;48.12;98850.72;4899509;29;20032;-92
2021/03/13 12:51:18;;;;;;;18.05;12.35;;;;;;;13.77;48.24;98859.59;4899343;29;20044;-93
2021/03/13 12:53:45;;;;;;;16.67;12.20;;;;;;;13.83;49.00;98863.75;4899482;29;20060;-92
2021/03/13 12:56:11;;;;;;;19.13;12.65;;;;;;;13.90;47.77;98866.84;4899651;29;20067;-91
2021/03/13 12:58:37;;;;;;;18.00;11.55;;;;;;;13.99;48.26;98869.59;4900619;29;20107;-93
2021/03/13 13:01:04;;;;;;;20.00;12.82;;;;;;;14.07;47.71;98857.31;4907580;29;20064;-93
2021/03/13 13:03:29;;;;;;;20.20;13.68;;;;;;;14.14;47.63;98852.31;4901361;29;20098;-93
2021/03/13 13:05:55;;;;;;;18.95;12.25;;;;;;;14.22;47.56;98850.78;4901298;29;20176;-93
2021/03/13 13:08:21;;;;;;;23.85;13.27;;;;;;;14.28;47.80;98860.34;4901286;29;20032;-93
2021/03/13 13:10:46;;;;;;;17.83;12.65;;;;;;;14.34;46.77;98861.81;4902468;29;20036;-94
2021/03/13 13:13:23;;;;;;;19.60;13.35;;;;;;;14.33;46.42;98852.16;4901684;29;20035;-94
2021/03/13 13:15:51;;;;;;;23.48;13.43;;;;;;;14.32;46.98;98847.06;4902469;29;20645;-93
2021/03/13 13:18:21;;;;;;;21.13;14.27;;;;;;;14.35;46.58;98849.94;4902129;29;20024;-94
2021/03/13 13:20:47;;;;;;;19.10;12.63;;;;;;;14.35;46.68;98849.94;4903027;29;20036;-94
2021/03/13 13:23:13;;;;;;;17.08;13.02;;;;;;;14.39;47.06;98847.44;4900938;29;20083;-93
2021/03/13 13:25:40;;;;;;;22.45;12.48;;;;;;;14.40;46.86;98844.44;4900576;29;20056;-94
2021/03/13 13:28:07;;;;;;;17.53;13.33;;;;;;;14.41;46.84;98848.75;4901169;29;20500;-94
2021/03/13 13:30:32;;;;;;;18.23;12.52;;;;;;;14.43;46.66;98837.66;4902832;29;20279;-93
2021/03/13 13:32:58;;;;;;;18.50;12.75;;;;;;;14.48;46.44;98839.44;4899859;29;20028;-93
2021/03/13 13:35:25;;;;;;;15.65;12.25;;;;;;;14.51;46.24;98836.94;4887358;29;20048;-93
2021/03/13 13:37:52;;;;;;;18.25;12.35;;;;;;;14.54;46.00;98822.84;4899169;29;20054;-94
2021/03/13 13:40:19;;;;;;;17.85;12.95;;;;;;;14.57;45.75;98821.44;4898412;29;20091;-92
2021/03/13 13:42:45;;;;;;;16.23;11.80;;;;;;;14.62;45.93;98817.81;4898706;29;20476;-92
2021/03/13 13:45:13;;;;;;;16.77;11.88;;;;;;;14.63;46.69;98814.81;4898788;29;20091;-92
2021/03/13 13:47:39;;;;;;;17.65;12.48;;;;;;;14.56;46.93;98814.47;4900823;29;20040;-93
2021/03/13 13:50:07;;;;;;;16.77;11.70;;;;;;;14.54;47.11;98809.38;4898911;29;20032;-91
2021/03/13 13:52:33;;;;;;;16.65;12.68;;;;;;;14.52;47.34;98808.91;4898570;29;20028;-90
2021/03/13 13:54:58;;;;;;;22.75;13.95;;;;;;;14.46;47.32;98807.44;4897261;29;20047;-91
2021/03/13 13:57:28;;;;;;;18.10;13.48;;;;;;;14.43;47.12;98808.06;4897549;29;20028;-90
2021/03/13 13:59:54;;;;;;;16.35;12.82;;;;;;;14.43;47.10;98818.81;4897587;29;20504;-91
2021/03/13 14:02:19;;;;;;;19.85;14.40;;;;;;;14.43;47.25;98812.63;4897320;29;20115;-90
2021/03/13 14:04:45;;;;;;;18.25;12.30;;;;;;;14.44;47.36;98820.41;4897243;29;20036;-90
2021/03/13 14:07:10;;;;;;;18.08;13.15;;;;;;;14.45;46.93;98816.59;4897839;29;20043;-91
2021/03/13 14:09:36;;;;;;;22.52;13.95;;;;;;;14.46;46.84;98812.81;4898335;29;20028;-91
2021/03/13 14:12:01;;;;;;;20.35;14.13;;;;;;;14.46;46.57;98820.88;4897201;29;20525;-90
2021/03/13 14:14:27;;;;;;;19.77;13.40;;;;;;;14.47;46.68;98832.47;4897749;29;20036;-91
2021/03/13 14:16:52;;;;;;;17.30;13.18;;;;;;;14.47;46.86;98833.25;4898011;29;20032;-90
2021/03/13 14:19:17;;;;;;;19.52;13.32;;;;;;;14.46;47.01;98831.66;4897440;29;20054;-91
2021/03/13 14:21:43;;;;;;;17.83;12.30;;;;;;;14.48;47.27;98842.13;4897435;29;20060;-91
2021/03/13 14:24:08;;;;;;;17.58;11.32;;;;;;;14.41;47.79;98843.34;4898911;29;20135;-92
2021/03/13 14:26:34;;;;;;;15.35;10.82;;;;;;;14.33;47.90;98843.28;4902436;29;20629;-92
2021/03/13 14:29:00;;;;;;;18.20;10.75;;;;;;;14.24;48.40;98838.66;4906080;29;20039;-93
2021/03/13 14:31:25;;;;;;;14.20;10.68;;;;;;;14.17;48.81;98842.84;4903600;29;20028;-93
2021/03/13 14:33:51;;;;;;;15.93;10.48;;;;;;;14.09;49.07;98845.16;4903117;29;20115;-93
2021/03/13 14:36:17;;;;;;;13.43;10.55;;;;;;;14.01;49.07;98842.41;4901688;29;20550;-92
2021/03/13 14:38:42;;;;;;;15.27;11.75;;;;;;;13.93;49.41;98842.03;4901449;29;20029;-92
2021/03/13 14:41:08;;;;;;;15.75;11.40;;;;;;;13.90;49.28;98839.13;4901419;29;20126;-92
2021/03/13 14:43:33;;;;;;;15.80;10.95;;;;;;;13.88;49.79;98846.72;4901102;29;20024;-92
2021/03/13 14:45:59;;;;;;;17.65;12.60;;;;;;;13.87;49.98;98840.53;4901609;29;20036;-92
2021/03/13 14:48:27;;;;;;;15.52;11.00;;;;;;;13.83;49.42;98836.06;4901453;29;20024;-92
2021/03/13 14:50:53;;;;;;;17.40;11.02;;;;;;;13.83;49.95;98830.69;4901462;29;20059;-92
2021/03/13 14:53:19;;;;;;;16.60;10.93;;;;;;;13.82;49.05;98839.84;4901086;29;20028;-92
2021/03/13 14:55:46;;;;;;;15.57;11.25;;;;;;;13.83;49.62;98838.75;4900894;29;20131;-91
2021/03/13 14:58:12;;;;;;;21.15;14.35;;;;;;;13.81;49.79;98847.13;4900912;29;20028;-92
2021/03/13 15:00:37;;;;;;;16.77;13.00;;;;;;;13.77;49.63;98838.88;4901055;29;20099;-91
2021/03/13 15:03:03;;;;;;;19.60;13.68;;;;;;;13.79;49.69;98837.78;4900601;29;20024;-91
2021/03/13 15:05:28;;;;;;;22.33;13.52;;;;;;;13.78;49.85;98837.00;4900845;29;20142;-91
2021/03/13 15:07:54;;;;;;;20.95;13.95;;;;;;;13.77;49.98;98836.19;4905149;29;20079;-91
2021/03/13 15:10:21;;;;;;;19.80;13.57;;;;;;;13.78;49.82;98839.69;4915184;29;20114;-90
2021/03/13 15:12:46;;;;;;;15.73;10.50;;;;;;;13.78;49.68;98839.69;4903217;29;20153;-90
2021/03/13 15:15:13;;;;;;;16.13;11.45;;;;;;;13.76;49.58;98837.28;4904756;29;20164;-88
2021/03/13 15:17:39;;;;;;;16.17;12.30;;;;;;;13.74;49.78;98833.31;4901133;29;20042;-91
2021/03/13 15:20:07;;;;;;;19.17;11.60;;;;;;;13.69;49.21;98825.38;4902672;29;20460;-89
2021/03/13 15:22:33;;;;;;;25.92;17.75;;;;;;;13.70;49.36;98824.28;4919452;29;20048;-93
2021/03/13 15:24:58;;;;;;;113.90;64.57;;;;;;;13.69;49.30;98828.06;4907576;29;20559;-92
2021/03/13 15:27:24;;;;;;;677.70;312.23;;;;;;;13.69;49.15;98828.06;4899480;29;20028;-92
2021/03/13 15:29:49;;;;;;;284.83;138.80;;;;;;;13.70;49.98;98829.66;4910711;29;20031;-91
2021/03/13 15:32:15;;;;;;;48.58;33.08;;;;;;;13.67;50.09;98831.03;4901723;29;20053;-91
2021/03/13 15:34:40;;;;;;;43.67;26.90;;;;;;;13.68;49.45;98839.88;4911056;29;20031;-93
2021/03/13 15:37:05;;;;;;;39.67;25.90;;;;;;;13.65;49.77;98837.81;4907307;29;20028;-83
2021/03/13 15:39:31;;;;;;;75.20;37.90;;;;;;;13.64;50.30;98836.22;4906285;29;20031;-82
2021/03/13 15:41:57;;;;;;;574.05;274.63;;;;;;;13.62;49.41;98844.56;4908386;29;20043;-84
2021/03/13 15:44:23;;;;;;;66.68;46.28;;;;;;;13.55;49.50;98839.63;4908929;29;20036;-85
2021/03/13 15:46:49;;;;;;;420.27;173.75;;;;;;;13.52;49.80;98842.09;4910799;29;20039;-81
2021/03/13 15:49:15;;;;;;;159.90;87.90;;;;;;;13.48;50.44;98841.13;4909255;29;20024;-82
2021/03/13 15:51:41;;;;;;;180.45;94.85;;;;;;;13.42;50.51;98833.16;4906457;29;20091;-87
2021/03/13 15:54:07;;;;;;;50.13;34.17;;;;;;;13.43;50.55;98831.28;4903425;29;20104;-90
2021/03/13 15:56:33;;;;;;;53.90;34.60;;;;;;;13.36;50.34;98826.25;4902300;29;20480;-93
2021/03/13 15:58:59;;;;;;;52.55;30.15;;;;;;;13.40;50.58;98835.34;4898117;29;20046;-87
2021/03/13 16:01:26;;;;;;;271.13;131.27;;;;;;;13.35;50.97;98829.25;4917483;29;20023;-89
2021/03/13 16:03:52;;;;;;;343.90;174.95;;;;;;;13.36;51.20;98839.69;4906575;29;20020;-92
2021/03/13 16:06:20;;;;;;;451.67;224.32;;;;;;;13.30;51.32;98835.50;4927491;29;20027;-92
2021/03/13 16:08:45;;;;;;;127.10;67.32;;;;;;;13.27;50.89;98836.13;4903624;29;20525;-91
2021/03/13 16:11:12;;;;;;;956.92;472.33;;;;;;;13.28;51.36;98835.81;4901172;29;20044;-89
2021/03/13 16:13:40;;;;;;;226.10;115.93;;;;;;;13.24;51.69;98839.41;4901236;29;20457;-94
2021/03/13 16:16:06;;;;;;;445.52;232.45;;;;;;;13.20;51.65;98849.94;4885004;29;20579;-88
2021/03/13 16:18:31;;;;;;;387.50;194.88;;;;;;;13.15;51.46;98851.94;4900420;29;20036;-91
2021/03/13 16:20:57;;;;;;;70.20;42.97;;;;;;;13.07;51.77;98845.34;4913705;29;20040;-91
2021/03/13 16:23:23;;;;;;;672.30;347.38;;;;;;;13.05;51.54;98858.28;4917417;29;20533;-92
2021/03/13 16:25:50;;;;;;;417.65;206.20;;;;;;;12.98;51.57;98848.72;4909041;29;20032;-93
2021/03/13 16:28:17;;;;;;;79.55;51.17;;;;;;;12.96;52.37;98847.44;4919008;29;20039;-87
2021/03/13 16:30:44;;;;;;;358.65;154.77;;;;;;;12.92;52.30;98860.66;4905505;29;20035;-91
2021/03/13 16:33:11;;;;;;;512.13;243.55;;;;;;;12.88;52.75;98858.88;4912893;29;20031;-91
2021/03/13 16:35:37;;;;;;;845.38;451.90;;;;;;;12.82;52.75;98867.00;4899200;29;20032;-89
2021/03/13 16:38:03;;;;;;;263.85;129.80;;;;;;;12.78;52.23;98866.00;4902768;29;20419;-91
2021/03/13 16:40:28;;;;;;;224.40;114.53;;;;;;;12.78;51.62;98875.91;4913459;29;20122;-90
2021/03/13 16:42:54;;;;;;;71.40;51.28;;;;;;;12.74;51.23;98872.25;4906527;29;20036;-92
2021/03/13 16:45:20;;;;;;;51.85;35.72;;;;;;;12.71;51.59;98867.47;4898890;29;20047;-92
2021/03/13 16:47:46;;;;;;;50.45;31.58;;;;;;;12.64;50.67;98865.94;4902001;29;20032;-94
2021/03/13 16:50:13;;;;;;;46.85;29.95;;;;;;;12.58;50.54;98872.47;4900729;29;20130;-92
2021/03/13 16:52:39;;;;;;;37.30;25.63;;;;;;;12.48;50.21;98865.41;4915810;29;20031;-92
2021/03/13 16:55:07;;;;;;;42.50;26.55;;;;;;;12.46;50.13;98877.50;4900109;29;20039;-94
2021/03/13 16:57:36;;;;;;;43.42;26.58;;;;;;;12.41;50.62;98882.97;4885778;29;20032;-85
2021/03/13 17:00:07;;;;;;;53.20;29.70;;;;;;;12.37;50.31;98876.59;4909473;29;20123;-94
2021/03/13 17:02:33;;;;;;;45.03;27.35;;;;;;;12.33;50.96;98881.75;4902047;29;20032;-94
2021/03/13 17:04:58;;;;;;;38.28;25.15;;;;;;;12.32;49.62;98894.34;4899980;29;20028;-94
2021/03/13 17:07:24;;;;;;;45.15;26.30;;;;;;;12.30;50.03;98891.19;4899505;29;20128;-92
2021/03/13 17:09:49;;;;;;;52.63;28.67;;;;;;;12.28;49.84;98892.53;4898102;29;20028;-90
2021/03/13 17:12:15;;;;;;;51.40;30.95;;;;;;;12.28;49.75;98898.72;4897869;29;20039;-90
2021/03/13 17:14:41;;;;;;;54.58;34.05;;;;;;;12.28;50.02;98904.06;4899782;29;20039;-91
2021/03/13 17:17:06;;;;;;;61.08;35.88;;;;;;;12.26;49.51;98895.50;4908567;29;20636;-92
2021/03/13 17:19:32;;;;;;;64.65;38.15;;;;;;;12.27;49.91;98907.03;4898262;29;20044;-93
2021/03/13 17:21:58;;;;;;;54.95;32.63;;;;;;;12.26;49.47;98910.81;4898635;29;20062;-93
2021/03/13 17:24:24;;;;;;;50.70;29.13;;;;;;;12.24;50.04;98908.44;4900316;29;20039;-91
2021/03/13 17:26:49;;;;;;;62.08;37.97;;;;;;;12.21;49.80;98903.63;4901764;29;20166;-94
2021/03/13 17:29:15;;;;;;;60.42;35.42;;;;;;;12.24;49.67;98912.97;4901109;29;20056;-91
2021/03/13 17:31:41;;;;;;;46.95;29.20;;;;;;;12.21;49.74;98919.72;4910634;29;20047;-94
2021/03/13 17:34:06;;;;;;;81.20;45.95;;;;;;;12.17;49.58;98921.41;4918213;29;20039;-94
2021/03/13 17:36:32;;;;;;;93.90;52.85;;;;;;;12.13;49.99;98912.31;4914468;29;20507;-93
2021/03/13 17:39:01;;;;;;;75.60;43.65;;;;;;;12.13;49.98;98918.50;4910186;29;20039;-93
2021/03/13 17:41:27;;;;;;;76.30;45.63;;;;;;;12.11;50.52;98917.97;4917361;29;20038;-89
2021/03/13 17:43:53;;;;;;;77.80;45.72;;;;;;;12.08;50.63;98920.44;4907577;29;20043;-94
2021/03/13 17:46:18;;;;;;;66.82;41.13;;;;;;;12.04;50.77;98922.09;4901192;29;20040;-93
2021/03/13 17:48:44;;;;;;;53.95;34.55;;;;;;;11.97;50.47;98920.59;4904451;29;20472;-95
2021/03/13 17:51:10;;;;;;;51.95;32.13;;;;;;;11.92;50.26;98917.13;4909226;29;20116;-95
2021/03/13 17:53:36;;;;;;;54.47;32.75;;;;;;;11.89;50.84;98917.69;4911649;29;20029;-92
2021/03/13 17:56:03;;;;;;;50.60;30.40;;;;;;;11.85;50.95;98925.50;4913864;29;20028;-91
2021/03/13 17:58:40;;;;;;;64.00;36.45;;;;;;;11.82;50.98;98926.09;4899032;29;20032;-96
2021/03/13 18:01:06;;;;;;;63.28;38.20;;;;;;;11.78;51.14;98931.22;4890503;29;20043;-88
2021/03/13 18:03:32;;;;;;;54.85;34.40;;;;;;;11.76;51.22;98928.03;4907070;29;20066;-89
2021/03/13 18:05:57;;;;;;;48.78;30.38;;;;;;;11.76;51.56;98921.88;4906104;29;20055;-89
2021/03/13 18:08:23;;;;;;;44.22;26.33;;;;;;;11.75;51.64;98926.44;4913550;29;20031;-88
2021/03/13 18:10:48;;;;;;;46.53;27.92;;;;;;;11.75;51.03;98925.66;4917488;29;20059;-87
2021/03/13 18:13:14;;;;;;;57.88;32.35;;;;;;;11.71;51.51;98921.97;4912614;29;20119;-87
2021/03/13 18:15:39;;;;;;;38.38;23.45;;;;;;;11.73;51.16;98925.94;4909069;29;20051;-87
2021/03/13 18:18:05;;;;;;;36.70;23.65;;;;;;;11.71;51.21;98930.78;4909284;29;20046;-91
2021/03/13 18:20:30;;;;;;;33.88;22.77;;;;;;;11.71;50.93;98930.78;4907744;29;20586;-89
2021/03/13 18:22:56;;;;;;;38.67;24.38;;;;;;;11.67;51.18;98932.44;4918555;29;20063;-87
2021/03/13 18:25:22;;;;;;;48.60;29.02;;;;;;;11.63;50.64;98937.56;4916471;29;20098;-89
2021/03/13 18:27:47;;;;;;;37.35;22.35;;;;;;;11.59;50.85;98933.84;4903276;29;20099;-88
2021/03/13 18:30:13;;;;;;;36.20;21.33;;;;;;;11.56;50.25;98937.13;4904992;29;20043;-88
2021/03/13 18:32:39;;;;;;;47.55;26.27;;;;;;;11.54;50.86;98933.91;4907244;29;20039;-88
2021/03/13 18:35:06;;;;;;;44.20;27.13;;;;;;;11.51;51.02;98940.63;4900954;29;20032;-90
2021/03/13 18:37:32;;;;;;;40.50;25.08;;;;;;;11.48;50.38;98943.88;4903042;29;20059;-86
2021/03/13 18:39:57;;;;;;;37.58;23.27;;;;;;;11.46;50.29;98939.88;4913304;29;20412;-91
2021/03/13 18:42:23;;;;;;;31.80;20.73;;;;;;;11.46;50.46;98937.22;4905524;29;20040;-89
2021/03/13 18:44:49;;;;;;;40.38;24.15;;;;;;;11.46;51.15;98946.06;4908906;29;20132;-92
2021/03/13 18:47:14;;;;;;;45.08;27.50;;;;;;;11.44;50.88;98940.19;4904507;29;20034;-90
2021/03/13 18:49:40;;;;;;;32.70;21.33;;;;;;;11.40;51.60;98941.84;4906082;29;20028;-88
2021/03/13 18:52:05;;;;;;;32.47;22.90;;;;;;;11.33;51.13;98942.16;4918186;29;20023;-88
2021/03/13 18:54:31;;;;;;;37.03;19.85;;;;;;;11.31;51.83;98949.66;4910567;29;20095;-89
2021/03/13 18:56:57;;;;;;;35.72;20.67;;;;;;;11.28;51.85;98942.22;4918081;29;20496;-87
2021/03/13 18:59:22;;;;;;;39.17;22.35;;;;;;;11.25;52.28;98942.78;4900248;29;20114;-86
2021/03/13 19:01:48;;;;;;;38.42;23.38;;;;;;;11.23;53.49;98936.09;4900775;29;20473;-86
2021/03/13 19:04:13;;;;;;;35.42;21.23;;;;;;;11.20;54.71;98942.81;4906713;29;20369;-88
2021/03/13 19:06:38;;;;;;;39.28;24.75;;;;;;;11.15;54.01;98942.88;4910329;29;20028;-89
2021/03/13 19:09:05;;;;;;;39.42;23.17;;;;;;;11.12;53.76;98940.75;4906389;29;20464;-91
2021/03/13 19:11:32;;;;;;;39.65;23.88;;;;;;;11.09;54.73;98942.13;4915133;29;20495;-95
2021/03/13 19:13:57;;;;;;;29.30;18.10;;;;;;;11.04;55.43;98939.50;4919277;29;20031;-88
2021/03/13 19:16:23;;;;;;;31.17;20.23;;;;;;;10.98;55.89;98935.28;4900380;29;20038;-89
2021/03/13 19:18:49;;;;;;;25.10;16.63;;;;;;;10.93;56.82;98943.34;4909444;29;20492;-93
2021/03/13 19:21:15;;;;;;;30.05;18.77;;;;;;;10.89;57.02;98941.22;4920406;29;20087;-93
2021/03/13 19:23:41;;;;;;;30.73;20.88;;;;;;;10.84;57.66;98945.81;4911333;29;20508;-92
2021/03/13 19:26:06;;;;;;;29.92;19.35;;;;;;;10.78;58.42;98942.38;4912566;29;20035;-94
2021/03/13 19:28:32;;;;;;;30.60;19.95;;;;;;;10.73;58.93;98937.88;4925714;29;20028;-92
2021/03/13 19:30:57;;;;;;;23.50;15.10;;;;;;;10.67;60.26;98947.00;4926697;29;20055;-92
2021/03/13 19:33:23;;;;;;;26.38;16.85;;;;;;;10.64;60.19;98939.53;4922512;29;20028;-94
2021/03/13 19:35:50;;;;;;;30.40;18.52;;;;;;;10.59;60.45;98942.25;4909261;29;20488;-92
2021/03/13 19:38:15;;;;;;;29.85;20.02;;;;;;;10.57;61.14;98953.22;4884365;29;20076;-91
2021/03/13 19:40:42;;;;;;;30.05;19.13;;;;;;;10.53;61.49;98951.38;4899768;29;20047;-85
2021/03/13 19:43:08;;;;;;;26.42;18.10;;;;;;;10.47;62.11;98955.97;4908353;29;20032;-86
2021/03/13 19:45:36;;;;;;;27.17;17.98;;;;;;;10.43;62.56;98954.94;4899003;29;20024;-88